sensor_id;sensor_type;location;lat;lon;timestamp;P1;durP1;ratioP1;P2;durP2;ratioP2
78927;SDS011;68322;22.726;113.540;2023-05-10T00:01:46;25.23;;;12.38;;
78927;SDS011;68322;22.726;113.540;2023-05-10T00:04:13;23.92;;;12.65;;
78927;SDS011;68322;22.726;113.540;2023-05-10T00:06:39;25.48;;;11.63;;
78927;SDS011;68322;22.726;113.540;2023-05-10T00:09:06;32.40;;;12.77;;
78927;SDS011;68322;22.726;113.540;2023-05-10T00:11:33;27.85;;;12.18;;
78927;SDS011;68322;22.726;113.540;2023-05-10T00:14:00;29.05;;;11.70;;
78927;SDS011;68322;22.726;113.540;2023-05-10T00:16:26;24.90;;;11.43;;
78927;SDS011;68322;22.726;113.540;2023-05-10T00:18:53;28.50;;;12.30;;
78927;SDS011;68322;22.726;113.540;2023-05-10T00:21:20;28.85;;;12.68;;
78927;SDS011;68322;22.726;113.540;2023-05-10T00:23:47;28.23;;;12.90;;
78927;SDS011;68322;22.726;113.540;2023-05-10T00:26:13;22.48;;;11.60;;
78927;SDS011;68322;22.726;113.540;2023-05-10T00:28:41;27.38;;;12.32;;
78927;SDS011;68322;22.726;113.540;2023-05-10T00:31:08;25.20;;;12.40;;
78927;SDS011;68322;22.726;113.540;2023-05-10T00:33:35;23.95;;;11.60;;
78927;SDS011;68322;22.726;113.540;2023-05-10T00:36:02;29.77;;;12.68;;
78927;SDS011;68322;22.726;113.540;2023-05-10T00:38:28;21.42;;;10.60;;
78927;SDS011;68322;22.726;113.540;2023-05-10T00:40:55;33.72;;;13.05;;
78927;SDS011;68322;22.726;113.540;2023-05-10T00:43:22;30.15;;;11.85;;
78927;SDS011;68322;22.726;113.540;2023-05-10T00:45:49;24.30;;;10.95;;
78927;SDS011;68322;22.726;113.540;2023-05-10T00:48:15;25.17;;;12.32;;
78927;SDS011;68322;22.726;113.540;2023-05-10T00:50:42;26.17;;;11.02;;
78927;SDS011;68322;22.726;113.540;2023-05-10T00:53:10;27.75;;;10.70;;
78927;SDS011;68322;22.726;113.540;2023-05-10T00:55:36;26.17;;;10.95;;
78927;SDS011;68322;22.726;113.540;2023-05-10T00:58:04;25.85;;;12.52;;
78927;SDS011;68322;22.726;113.540;2023-05-10T01:00:32;26.48;;;11.70;;
78927;SDS011;68322;22.726;113.540;2023-05-10T01:02:58;30.95;;;12.90;;
78927;SDS011;68322;22.726;113.540;2023-05-10T01:05:26;29.08;;;13.02;;
78927;SDS011;68322;22.726;113.540;2023-05-10T01:07:55;28.80;;;13.13;;
78927;SDS011;68322;22.726;113.540;2023-05-10T01:10:22;27.67;;;13.35;;
78927;SDS011;68322;22.726;113.540;2023-05-10T01:12:49;34.30;;;14.57;;
78927;SDS011;68322;22.726;113.540;2023-05-10T01:15:16;29.90;;;14.55;;
78927;SDS011;68322;22.726;113.540;2023-05-10T01:17:45;32.55;;;14.75;;
78927;SDS011;68322;22.726;113.540;2023-05-10T01:20:13;26.58;;;13.40;;
78927;SDS011;68322;22.726;113.540;2023-05-10T01:35:39;30.00;;;15.05;;
78927;SDS011;68322;22.726;113.540;2023-05-10T01:38:09;30.48;;;14.63;;
78927;SDS011;68322;22.726;113.540;2023-05-10T01:43:26;31.23;;;15.65;;
78927;SDS011;68322;22.726;113.540;2023-05-10T01:48:24;37.45;;;14.82;;
78927;SDS011;68322;22.726;113.540;2023-05-10T01:50:53;28.15;;;14.25;;
78927;SDS011;68322;22.726;113.540;2023-05-10T01:53:21;35.60;;;15.32;;
78927;SDS011;68322;22.726;113.540;2023-05-10T01:55:50;27.08;;;15.07;;
78927;SDS011;68322;22.726;113.540;2023-05-10T01:58:22;34.47;;;16.08;;
78927;SDS011;68322;22.726;113.540;2023-05-10T02:00:50;37.83;;;15.52;;
78927;SDS011;68322;22.726;113.540;2023-05-10T02:03:18;38.78;;;17.10;;
78927;SDS011;68322;22.726;113.540;2023-05-10T02:05:46;36.38;;;14.20;;
78927;SDS011;68322;22.726;113.540;2023-05-10T02:10:41;29.85;;;14.32;;
78927;SDS011;68322;22.726;113.540;2023-05-10T02:13:08;30.45;;;13.20;;
78927;SDS011;68322;22.726;113.540;2023-05-10T02:15:36;31.45;;;14.70;;
78927;SDS011;68322;22.726;113.540;2023-05-10T02:18:04;32.30;;;13.40;;
78927;SDS011;68322;22.726;113.540;2023-05-10T02:20:31;32.10;;;15.35;;
78927;SDS011;68322;22.726;113.540;2023-05-10T02:22:58;30.00;;;15.23;;
78927;SDS011;68322;22.726;113.540;2023-05-10T02:25:26;33.78;;;13.95;;
78927;SDS011;68322;22.726;113.540;2023-05-10T02:27:54;29.70;;;13.68;;
78927;SDS011;68322;22.726;113.540;2023-05-10T02:30:21;25.50;;;13.45;;
78927;SDS011;68322;22.726;113.540;2023-05-10T02:32:49;30.67;;;14.73;;
78927;SDS011;68322;22.726;113.540;2023-05-10T02:35:16;25.75;;;14.55;;
78927;SDS011;68322;22.726;113.540;2023-05-10T02:37:43;30.42;;;14.30;;
78927;SDS011;68322;22.726;113.540;2023-05-10T02:40:10;30.83;;;14.63;;
78927;SDS011;68322;22.726;113.540;2023-05-10T02:42:38;28.75;;;13.18;;
78927;SDS011;68322;22.726;113.540;2023-05-10T02:45:10;33.67;;;14.10;;
78927;SDS011;68322;22.726;113.540;2023-05-10T02:47:37;35.70;;;14.27;;
78927;SDS011;68322;22.726;113.540;2023-05-10T02:50:04;30.33;;;13.65;;
78927;SDS011;68322;22.726;113.540;2023-05-10T02:52:36;30.85;;;14.45;;
78927;SDS011;68322;22.726;113.540;2023-05-10T02:55:04;37.13;;;15.93;;
78927;SDS011;68322;22.726;113.540;2023-05-10T02:57:32;31.75;;;15.35;;
78927;SDS011;68322;22.726;113.540;2023-05-10T03:00:00;33.58;;;15.23;;
78927;SDS011;68322;22.726;113.540;2023-05-10T03:02:28;36.13;;;15.20;;
78927;SDS011;68322;22.726;113.540;2023-05-10T03:04:56;33.72;;;14.75;;
78927;SDS011;68322;22.726;113.540;2023-05-10T03:07:23;33.97;;;16.17;;
78927;SDS011;68322;22.726;113.540;2023-05-10T03:09:49;32.92;;;15.10;;
78927;SDS011;68322;22.726;113.540;2023-05-10T03:17:42;42.33;;;17.75;;
78927;SDS011;68322;22.726;113.540;2023-05-10T03:20:13;33.60;;;17.02;;
78927;SDS011;68322;22.726;113.540;2023-05-10T03:22:44;38.40;;;17.58;;
78927;SDS011;68322;22.726;113.540;2023-05-10T03:25:11;40.42;;;16.75;;
78927;SDS011;68322;22.726;113.540;2023-05-10T03:27:39;34.40;;;16.15;;
78927;SDS011;68322;22.726;113.540;2023-05-10T03:30:10;40.40;;;18.73;;
78927;SDS011;68322;22.726;113.540;2023-05-10T03:32:38;42.38;;;17.92;;
78927;SDS011;68322;22.726;113.540;2023-05-10T03:35:11;46.33;;;17.45;;
78927;SDS011;68322;22.726;113.540;2023-05-10T03:37:38;32.53;;;16.02;;
78927;SDS011;68322;22.726;113.540;2023-05-10T03:40:05;33.17;;;16.52;;
78927;SDS011;68322;22.726;113.540;2023-05-10T03:42:32;34.75;;;17.42;;
78927;SDS011;68322;22.726;113.540;2023-05-10T03:44:59;34.13;;;14.57;;
78927;SDS011;68322;22.726;113.540;2023-05-10T03:47:26;39.20;;;16.23;;
78927;SDS011;68322;22.726;113.540;2023-05-10T03:49:53;37.28;;;14.98;;
78927;SDS011;68322;22.726;113.540;2023-05-10T03:52:19;26.65;;;12.85;;
78927;SDS011;68322;22.726;113.540;2023-05-10T03:54:46;38.80;;;14.15;;
78927;SDS011;68322;22.726;113.540;2023-05-10T03:57:13;34.30;;;14.50;;
78927;SDS011;68322;22.726;113.540;2023-05-10T03:59:40;39.90;;;13.85;;
78927;SDS011;68322;22.726;113.540;2023-05-10T04:02:06;27.98;;;10.45;;
78927;SDS011;68322;22.726;113.540;2023-05-10T04:04:34;27.98;;;12.20;;
78927;SDS011;68322;22.726;113.540;2023-05-10T04:09:28;33.50;;;13.88;;
78927;SDS011;68322;22.726;113.540;2023-05-10T04:11:56;31.88;;;13.38;;
78927;SDS011;68322;22.726;113.540;2023-05-10T04:14:22;35.15;;;13.90;;
78927;SDS011;68322;22.726;113.540;2023-05-10T04:16:49;32.70;;;14.32;;
78927;SDS011;68322;22.726;113.540;2023-05-10T04:19:16;27.98;;;13.88;;
78927;SDS011;68322;22.726;113.540;2023-05-10T04:21:43;40.58;;;15.05;;
78927;SDS011;68322;22.726;113.540;2023-05-10T04:24:11;27.08;;;13.85;;
78927;SDS011;68322;22.726;113.540;2023-05-10T04:26:38;33.95;;;14.00;;
78927;SDS011;68322;22.726;113.540;2023-05-10T04:29:05;33.50;;;13.40;;
78927;SDS011;68322;22.726;113.540;2023-05-10T04:31:32;32.38;;;13.18;;
78927;SDS011;68322;22.726;113.540;2023-05-10T04:33:59;29.48;;;12.10;;
78927;SDS011;68322;22.726;113.540;2023-05-10T04:36:26;20.30;;;10.85;;
78927;SDS011;68322;22.726;113.540;2023-05-10T04:38:54;27.08;;;12.88;;
78927;SDS011;68322;22.726;113.540;2023-05-10T04:41:22;33.88;;;13.50;;
78927;SDS011;68322;22.726;113.540;2023-05-10T04:43:50;23.58;;;11.68;;
78927;SDS011;68322;22.726;113.540;2023-05-10T04:46:17;23.83;;;11.38;;
78927;SDS011;68322;22.726;113.540;2023-05-10T04:48:44;27.90;;;11.32;;
78927;SDS011;68322;22.726;113.540;2023-05-10T04:51:10;21.95;;;10.88;;
78927;SDS011;68322;22.726;113.540;2023-05-10T04:53:37;25.65;;;11.10;;
78927;SDS011;68322;22.726;113.540;2023-05-10T04:56:04;21.02;;;10.75;;
78927;SDS011;68322;22.726;113.540;2023-05-10T04:58:31;29.75;;;11.75;;
78927;SDS011;68322;22.726;113.540;2023-05-10T05:01:04;28.20;;;11.55;;
78927;SDS011;68322;22.726;113.540;2023-05-10T05:03:32;31.23;;;10.95;;
78927;SDS011;68322;22.726;113.540;2023-05-10T05:05:59;27.73;;;11.00;;
78927;SDS011;68322;22.726;113.540;2023-05-10T05:08:44;20.50;;;9.45;;
78927;SDS011;68322;22.726;113.540;2023-05-10T05:11:11;25.88;;;10.77;;
78927;SDS011;68322;22.726;113.540;2023-05-10T05:13:37;26.08;;;10.52;;
78927;SDS011;68322;22.726;113.540;2023-05-10T05:16:04;25.90;;;11.35;;
78927;SDS011;68322;22.726;113.540;2023-05-10T05:18:31;24.88;;;11.32;;
78927;SDS011;68322;22.726;113.540;2023-05-10T05:20:58;25.88;;;11.05;;
78927;SDS011;68322;22.726;113.540;2023-05-10T05:23:24;24.73;;;11.25;;
78927;SDS011;68322;22.726;113.540;2023-05-10T05:25:52;28.70;;;11.52;;
78927;SDS011;68322;22.726;113.540;2023-05-10T05:28:19;24.80;;;9.98;;
78927;SDS011;68322;22.726;113.540;2023-05-10T05:31:04;24.60;;;10.10;;
78927;SDS011;68322;22.726;113.540;2023-05-10T05:33:33;19.98;;;10.35;;
78927;SDS011;68322;22.726;113.540;2023-05-10T05:36:03;24.48;;;9.75;;
78927;SDS011;68322;22.726;113.540;2023-05-10T05:38:32;24.55;;;10.82;;
78927;SDS011;68322;22.726;113.540;2023-05-10T05:40:59;22.85;;;9.23;;
78927;SDS011;68322;22.726;113.540;2023-05-10T05:43:28;21.38;;;9.95;;
78927;SDS011;68322;22.726;113.540;2023-05-10T05:45:55;22.75;;;9.50;;
78927;SDS011;68322;22.726;113.540;2023-05-10T05:48:23;23.02;;;8.52;;
78927;SDS011;68322;22.726;113.540;2023-05-10T05:53:38;14.45;;;7.82;;
78927;SDS011;68322;22.726;113.540;2023-05-10T05:56:05;18.75;;;8.80;;
78927;SDS011;68322;22.726;113.540;2023-05-10T05:58:33;17.70;;;8.57;;
78927;SDS011;68322;22.726;113.540;2023-05-10T06:00:59;26.17;;;8.68;;
78927;SDS011;68322;22.726;113.540;2023-05-10T06:03:26;21.63;;;8.10;;
78927;SDS011;68322;22.726;113.540;2023-05-10T06:05:55;17.20;;;8.23;;
78927;SDS011;68322;22.726;113.540;2023-05-10T06:08:40;21.23;;;8.80;;
78927;SDS011;68322;22.726;113.540;2023-05-10T06:11:08;22.33;;;8.20;;
78927;SDS011;68322;22.726;113.540;2023-05-10T06:13:36;14.82;;;7.80;;
78927;SDS011;68322;22.726;113.540;2023-05-10T06:18:30;21.77;;;9.30;;
78927;SDS011;68322;22.726;113.540;2023-05-10T06:20:56;15.60;;;8.18;;
78927;SDS011;68322;22.726;113.540;2023-05-10T06:23:23;22.85;;;9.02;;
78927;SDS011;68322;22.726;113.540;2023-05-10T06:25:51;16.90;;;8.05;;
78927;SDS011;68322;22.726;113.540;2023-05-10T06:28:17;21.95;;;8.40;;
78927;SDS011;68322;22.726;113.540;2023-05-10T06:30:46;21.38;;;8.40;;
78927;SDS011;68322;22.726;113.540;2023-05-10T06:33:13;18.00;;;8.55;;
78927;SDS011;68322;22.726;113.540;2023-05-10T06:35:41;22.55;;;7.93;;
78927;SDS011;68322;22.726;113.540;2023-05-10T06:38:08;18.08;;;8.15;;
78927;SDS011;68322;22.726;113.540;2023-05-10T06:43:19;22.88;;;8.95;;
78927;SDS011;68322;22.726;113.540;2023-05-10T06:45:47;27.75;;;9.05;;
78927;SDS011;68322;22.726;113.540;2023-05-10T06:54:22;21.27;;;9.55;;
78927;SDS011;68322;22.726;113.540;2023-05-10T06:57:07;22.65;;;8.75;;
78927;SDS011;68322;22.726;113.540;2023-05-10T06:59:34;18.83;;;9.50;;
78927;SDS011;68322;22.726;113.540;2023-05-10T07:02:02;24.33;;;9.55;;
78927;SDS011;68322;22.726;113.540;2023-05-10T07:04:29;24.25;;;9.23;;
78927;SDS011;68322;22.726;113.540;2023-05-10T07:06:57;21.33;;;8.10;;
78927;SDS011;68322;22.726;113.540;2023-05-10T07:09:33;23.48;;;10.05;;
78927;SDS011;68322;22.726;113.540;2023-05-10T07:11:59;26.30;;;8.50;;
78927;SDS011;68322;22.726;113.540;2023-05-10T07:14:27;16.88;;;8.05;;
78927;SDS011;68322;22.726;113.540;2023-05-10T07:16:54;28.33;;;8.98;;
78927;SDS011;68322;22.726;113.540;2023-05-10T07:19:21;24.70;;;8.93;;
78927;SDS011;68322;22.726;113.540;2023-05-10T07:21:47;26.10;;;8.25;;
78927;SDS011;68322;22.726;113.540;2023-05-10T07:24:16;26.85;;;9.10;;
78927;SDS011;68322;22.726;113.540;2023-05-10T07:26:42;20.48;;;8.63;;
78927;SDS011;68322;22.726;113.540;2023-05-10T07:29:09;40.28;;;9.48;;
78927;SDS011;68322;22.726;113.540;2023-05-10T07:31:36;19.23;;;7.93;;
78927;SDS011;68322;22.726;113.540;2023-05-10T07:34:03;21.80;;;8.13;;
78927;SDS011;68322;22.726;113.540;2023-05-10T07:36:30;26.10;;;8.23;;
78927;SDS011;68322;22.726;113.540;2023-05-10T07:38:57;20.05;;;8.55;;
78927;SDS011;68322;22.726;113.540;2023-05-10T07:41:24;28.30;;;8.75;;
78927;SDS011;68322;22.726;113.540;2023-05-10T07:43:51;27.35;;;8.77;;
78927;SDS011;68322;22.726;113.540;2023-05-10T07:46:18;22.40;;;8.30;;
78927;SDS011;68322;22.726;113.540;2023-05-10T07:48:45;33.13;;;9.15;;
78927;SDS011;68322;22.726;113.540;2023-05-10T07:51:12;25.95;;;8.93;;
78927;SDS011;68322;22.726;113.540;2023-05-10T07:53:38;17.08;;;8.48;;
78927;SDS011;68322;22.726;113.540;2023-05-10T07:58:51;27.77;;;9.70;;
78927;SDS011;68322;22.726;113.540;2023-05-10T08:01:18;24.27;;;8.88;;
78927;SDS011;68322;22.726;113.540;2023-05-10T08:03:45;23.63;;;8.48;;
78927;SDS011;68322;22.726;113.540;2023-05-10T08:06:12;19.95;;;8.00;;
78927;SDS011;68322;22.726;113.540;2023-05-10T08:08:39;23.13;;;8.70;;
78927;SDS011;68322;22.726;113.540;2023-05-10T08:11:06;22.90;;;9.00;;
78927;SDS011;68322;22.726;113.540;2023-05-10T08:13:34;17.30;;;7.80;;
78927;SDS011;68322;22.726;113.540;2023-05-10T08:16:01;17.77;;;7.60;;
78927;SDS011;68322;22.726;113.540;2023-05-10T08:18:28;23.10;;;8.13;;
78927;SDS011;68322;22.726;113.540;2023-05-10T08:20:55;17.23;;;7.28;;
78927;SDS011;68322;22.726;113.540;2023-05-10T08:23:21;18.77;;;7.28;;
78927;SDS011;68322;22.726;113.540;2023-05-10T08:25:48;17.98;;;8.23;;
78927;SDS011;68322;22.726;113.540;2023-05-10T08:28:15;20.55;;;9.25;;
78927;SDS011;68322;22.726;113.540;2023-05-10T08:30:42;24.13;;;8.60;;
78927;SDS011;68322;22.726;113.540;2023-05-10T08:33:09;18.77;;;7.43;;
78927;SDS011;68322;22.726;113.540;2023-05-10T08:35:35;23.83;;;8.27;;
78927;SDS011;68322;22.726;113.540;2023-05-10T08:38:02;20.40;;;8.13;;
78927;SDS011;68322;22.726;113.540;2023-05-10T08:40:29;18.70;;;7.55;;
78927;SDS011;68322;22.726;113.540;2023-05-10T08:42:58;28.80;;;9.07;;
78927;SDS011;68322;22.726;113.540;2023-05-10T08:45:25;18.35;;;7.38;;
78927;SDS011;68322;22.726;113.540;2023-05-10T08:47:52;24.00;;;8.20;;
78927;SDS011;68322;22.726;113.540;2023-05-10T08:50:19;16.17;;;7.20;;
78927;SDS011;68322;22.726;113.540;2023-05-10T08:52:47;21.40;;;8.48;;
78927;SDS011;68322;22.726;113.540;2023-05-10T08:55:15;15.55;;;7.47;;
78927;SDS011;68322;22.726;113.540;2023-05-10T08:57:42;19.58;;;8.05;;
78927;SDS011;68322;22.726;113.540;2023-05-10T09:00:09;22.42;;;8.73;;
78927;SDS011;68322;22.726;113.540;2023-05-10T09:02:36;20.92;;;7.80;;
78927;SDS011;68322;22.726;113.540;2023-05-10T09:05:03;26.55;;;9.35;;
78927;SDS011;68322;22.726;113.540;2023-05-10T09:07:30;20.30;;;8.18;;
78927;SDS011;68322;22.726;113.540;2023-05-10T09:09:57;24.67;;;9.90;;
78927;SDS011;68322;22.726;113.540;2023-05-10T09:12:24;24.77;;;8.77;;
78927;SDS011;68322;22.726;113.540;2023-05-10T09:14:52;23.85;;;8.40;;
78927;SDS011;68322;22.726;113.540;2023-05-10T09:17:21;17.42;;;8.13;;
78927;SDS011;68322;22.726;113.540;2023-05-10T09:19:49;21.05;;;8.40;;
78927;SDS011;68322;22.726;113.540;2023-05-10T09:22:16;26.05;;;9.15;;
78927;SDS011;68322;22.726;113.540;2023-05-10T09:24:43;19.65;;;8.65;;
78927;SDS011;68322;22.726;113.540;2023-05-10T09:27:10;25.85;;;8.25;;
78927;SDS011;68322;22.726;113.540;2023-05-10T09:29:43;20.25;;;9.02;;
78927;SDS011;68322;22.726;113.540;2023-05-10T09:32:10;21.85;;;8.48;;
78927;SDS011;68322;22.726;113.540;2023-05-10T09:34:40;17.08;;;8.20;;
78927;SDS011;68322;22.726;113.540;2023-05-10T09:37:09;17.88;;;8.50;;
78927;SDS011;68322;22.726;113.540;2023-05-10T09:39:37;19.52;;;9.18;;
78927;SDS011;68322;22.726;113.540;2023-05-10T09:42:10;20.88;;;8.20;;
78927;SDS011;68322;22.726;113.540;2023-05-10T09:44:36;15.13;;;8.13;;
78927;SDS011;68322;22.726;113.540;2023-05-10T09:47:03;19.55;;;8.07;;
78927;SDS011;68322;22.726;113.540;2023-05-10T09:49:30;24.95;;;8.40;;
78927;SDS011;68322;22.726;113.540;2023-05-10T09:52:05;22.73;;;8.30;;
78927;SDS011;68322;22.726;113.540;2023-05-10T09:54:32;18.52;;;7.95;;
78927;SDS011;68322;22.726;113.540;2023-05-10T09:56:59;21.38;;;8.60;;
78927;SDS011;68322;22.726;113.540;2023-05-10T09:59:26;19.25;;;7.50;;
78927;SDS011;68322;22.726;113.540;2023-05-10T10:01:57;18.30;;;8.13;;
78927;SDS011;68322;22.726;113.540;2023-05-10T10:04:24;17.88;;;7.72;;
78927;SDS011;68322;22.726;113.540;2023-05-10T10:07:00;18.98;;;8.00;;
78927;SDS011;68322;22.726;113.540;2023-05-10T10:09:28;17.92;;;7.90;;
78927;SDS011;68322;22.726;113.540;2023-05-10T10:11:55;19.42;;;8.38;;
78927;SDS011;68322;22.726;113.540;2023-05-10T10:14:22;20.27;;;7.97;;
78927;SDS011;68322;22.726;113.540;2023-05-10T10:16:49;21.30;;;7.82;;
78927;SDS011;68322;22.726;113.540;2023-05-10T10:19:19;18.45;;;8.43;;
78927;SDS011;68322;22.726;113.540;2023-05-10T10:21:46;18.23;;;8.55;;
78927;SDS011;68322;22.726;113.540;2023-05-10T10:24:13;13.88;;;7.68;;
78927;SDS011;68322;22.726;113.540;2023-05-10T10:26:40;22.98;;;7.70;;
78927;SDS011;68322;22.726;113.540;2023-05-10T10:31:41;23.63;;;8.27;;
78927;SDS011;68322;22.726;113.540;2023-05-10T10:34:30;14.13;;;7.60;;
78927;SDS011;68322;22.726;113.540;2023-05-10T10:36:57;14.63;;;7.30;;
78927;SDS011;68322;22.726;113.540;2023-05-10T10:39:24;19.58;;;7.80;;
78927;SDS011;68322;22.726;113.540;2023-05-10T10:41:52;20.10;;;7.47;;
78927;SDS011;68322;22.726;113.540;2023-05-10T10:55:05;17.90;;;7.18;;
78927;SDS011;68322;22.726;113.540;2023-05-10T10:57:42;14.90;;;6.07;;
78927;SDS011;68322;22.726;113.540;2023-05-10T11:02:50;14.60;;;6.80;;
78927;SDS011;68322;22.726;113.540;2023-05-10T11:05:24;14.60;;;6.40;;
78927;SDS011;68322;22.726;113.540;2023-05-10T11:07:54;15.68;;;6.13;;
78927;SDS011;68322;22.726;113.540;2023-05-10T11:10:22;19.92;;;6.43;;
78927;SDS011;68322;22.726;113.540;2023-05-10T11:15:35;15.50;;;5.72;;
78927;SDS011;68322;22.726;113.540;2023-05-10T11:20:29;13.10;;;6.07;;
78927;SDS011;68322;22.726;113.540;2023-05-10T11:23:14;16.50;;;6.18;;
78927;SDS011;68322;22.726;113.540;2023-05-10T11:25:45;19.38;;;6.65;;
78927;SDS011;68322;22.726;113.540;2023-05-10T11:28:12;14.63;;;5.40;;
78927;SDS011;68322;22.726;113.540;2023-05-10T11:30:39;18.80;;;7.15;;
78927;SDS011;68322;22.726;113.540;2023-05-10T11:33:07;19.70;;;6.63;;
78927;SDS011;68322;22.726;113.540;2023-05-10T11:35:37;14.60;;;5.65;;
78927;SDS011;68322;22.726;113.540;2023-05-10T11:38:08;14.50;;;5.97;;
78927;SDS011;68322;22.726;113.540;2023-05-10T11:40:35;19.52;;;6.72;;
78927;SDS011;68322;22.726;113.540;2023-05-10T11:43:02;13.35;;;5.55;;
78927;SDS011;68322;22.726;113.540;2023-05-10T11:45:31;17.08;;;6.15;;
78927;SDS011;68322;22.726;113.540;2023-05-10T11:47:59;11.85;;;5.50;;
78927;SDS011;68322;22.726;113.540;2023-05-10T11:50:27;13.02;;;5.75;;
78927;SDS011;68322;22.726;113.540;2023-05-10T11:52:57;14.02;;;5.70;;
78927;SDS011;68322;22.726;113.540;2023-05-10T11:55:32;15.20;;;5.72;;
78927;SDS011;68322;22.726;113.540;2023-05-10T11:57:59;11.63;;;5.68;;
78927;SDS011;68322;22.726;113.540;2023-05-10T12:00:27;13.30;;;5.43;;
78927;SDS011;68322;22.726;113.540;2023-05-10T12:02:53;11.13;;;5.25;;
78927;SDS011;68322;22.726;113.540;2023-05-10T12:05:20;12.85;;;5.35;;
78927;SDS011;68322;22.726;113.540;2023-05-10T12:07:47;11.75;;;6.10;;
78927;SDS011;68322;22.726;113.540;2023-05-10T12:10:14;11.77;;;5.60;;
78927;SDS011;68322;22.726;113.540;2023-05-10T12:17:37;16.40;;;5.60;;
78927;SDS011;68322;22.726;113.540;2023-05-10T12:22:33;11.98;;;5.90;;
78927;SDS011;68322;22.726;113.540;2023-05-10T12:25:01;15.30;;;5.85;;
78927;SDS011;68322;22.726;113.540;2023-05-10T12:27:33;11.07;;;5.00;;
78927;SDS011;68322;22.726;113.540;2023-05-10T12:30:04;14.13;;;4.78;;
78927;SDS011;68322;22.726;113.540;2023-05-10T12:32:41;12.93;;;5.88;;
78927;SDS011;68322;22.726;113.540;2023-05-10T12:35:08;10.85;;;5.05;;
78927;SDS011;68322;22.726;113.540;2023-05-10T12:37:37;18.50;;;5.97;;
78927;SDS011;68322;22.726;113.540;2023-05-10T12:40:06;12.00;;;5.07;;
78927;SDS011;68322;22.726;113.540;2023-05-10T12:42:33;12.75;;;5.57;;
78927;SDS011;68322;22.726;113.540;2023-05-10T12:45:02;16.20;;;6.05;;
78927;SDS011;68322;22.726;113.540;2023-05-10T12:47:29;13.48;;;6.07;;
78927;SDS011;68322;22.726;113.540;2023-05-10T12:49:56;11.23;;;5.82;;
78927;SDS011;68322;22.726;113.540;2023-05-10T12:52:24;13.43;;;6.30;;
78927;SDS011;68322;22.726;113.540;2023-05-10T12:54:51;15.43;;;6.38;;
78927;SDS011;68322;22.726;113.540;2023-05-10T12:57:19;15.05;;;6.38;;
78927;SDS011;68322;22.726;113.540;2023-05-10T12:59:46;14.27;;;6.63;;
78927;SDS011;68322;22.726;113.540;2023-05-10T13:02:14;18.65;;;7.13;;
78927;SDS011;68322;22.726;113.540;2023-05-10T13:04:44;16.48;;;6.47;;
78927;SDS011;68322;22.726;113.540;2023-05-10T13:09:37;15.85;;;7.45;;
78927;SDS011;68322;22.726;113.540;2023-05-10T13:12:04;14.52;;;6.72;;
78927;SDS011;68322;22.726;113.540;2023-05-10T13:14:31;14.88;;;7.30;;
78927;SDS011;68322;22.726;113.540;2023-05-10T13:16:58;20.45;;;7.43;;
78927;SDS011;68322;22.726;113.540;2023-05-10T13:19:25;23.05;;;8.23;;
78927;SDS011;68322;22.726;113.540;2023-05-10T13:21:53;18.67;;;7.65;;
78927;SDS011;68322;22.726;113.540;2023-05-10T13:24:24;17.90;;;7.55;;
78927;SDS011;68322;22.726;113.540;2023-05-10T13:26:50;19.63;;;7.50;;
78927;SDS011;68322;22.726;113.540;2023-05-10T13:29:17;19.23;;;7.28;;
78927;SDS011;68322;22.726;113.540;2023-05-10T13:31:44;18.65;;;8.77;;
78927;SDS011;68322;22.726;113.540;2023-05-10T13:34:12;21.13;;;8.55;;
78927;SDS011;68322;22.726;113.540;2023-05-10T13:36:39;16.48;;;7.25;;
78927;SDS011;68322;22.726;113.540;2023-05-10T13:39:06;14.52;;;7.57;;
78927;SDS011;68322;22.726;113.540;2023-05-10T13:41:33;21.98;;;8.02;;
78927;SDS011;68322;22.726;113.540;2023-05-10T13:44:00;18.55;;;7.30;;
78927;SDS011;68322;22.726;113.540;2023-05-10T13:46:28;22.25;;;8.15;;
78927;SDS011;68322;22.726;113.540;2023-05-10T13:48:57;22.20;;;7.97;;
78927;SDS011;68322;22.726;113.540;2023-05-10T13:51:25;22.63;;;7.80;;
78927;SDS011;68322;22.726;113.540;2023-05-10T13:53:54;17.83;;;7.88;;
78927;SDS011;68322;22.726;113.540;2023-05-10T13:56:20;15.80;;;7.40;;
78927;SDS011;68322;22.726;113.540;2023-05-10T13:58:49;16.17;;;7.38;;
78927;SDS011;68322;22.726;113.540;2023-05-10T14:01:16;15.90;;;7.70;;
78927;SDS011;68322;22.726;113.540;2023-05-10T14:03:44;19.30;;;8.10;;
78927;SDS011;68322;22.726;113.540;2023-05-10T14:06:13;18.02;;;7.63;;
78927;SDS011;68322;22.726;113.540;2023-05-10T14:08:40;16.92;;;7.43;;
78927;SDS011;68322;22.726;113.540;2023-05-10T14:11:08;17.40;;;7.85;;
78927;SDS011;68322;22.726;113.540;2023-05-10T14:13:35;18.15;;;7.35;;
78927;SDS011;68322;22.726;113.540;2023-05-10T14:16:01;19.40;;;6.90;;
78927;SDS011;68322;22.726;113.540;2023-05-10T14:18:28;12.85;;;7.57;;
78927;SDS011;68322;22.726;113.540;2023-05-10T14:20:57;16.27;;;7.10;;
78927;SDS011;68322;22.726;113.540;2023-05-10T14:23:24;14.30;;;7.40;;
78927;SDS011;68322;22.726;113.540;2023-05-10T14:25:51;17.63;;;6.85;;
78927;SDS011;68322;22.726;113.540;2023-05-10T14:28:36;18.98;;;6.97;;
78927;SDS011;68322;22.726;113.540;2023-05-10T14:31:06;14.93;;;8.07;;
78927;SDS011;68322;22.726;113.540;2023-05-10T14:33:46;18.23;;;7.63;;
78927;SDS011;68322;22.726;113.540;2023-05-10T14:36:31;21.45;;;8.30;;
78927;SDS011;68322;22.726;113.540;2023-05-10T14:38:58;20.48;;;7.75;;
78927;SDS011;68322;22.726;113.540;2023-05-10T14:41:42;20.30;;;8.32;;
78927;SDS011;68322;22.726;113.540;2023-05-10T14:44:11;24.25;;;7.68;;
78927;SDS011;68322;22.726;113.540;2023-05-10T14:46:39;16.60;;;7.40;;
78927;SDS011;68322;22.726;113.540;2023-05-10T14:49:07;20.48;;;8.20;;
78927;SDS011;68322;22.726;113.540;2023-05-10T14:51:33;18.75;;;7.72;;
78927;SDS011;68322;22.726;113.540;2023-05-10T14:54:02;17.42;;;8.98;;
78927;SDS011;68322;22.726;113.540;2023-05-10T14:56:29;16.77;;;7.25;;
78927;SDS011;68322;22.726;113.540;2023-05-10T14:58:55;17.88;;;7.15;;
78927;SDS011;68322;22.726;113.540;2023-05-10T15:01:22;23.00;;;8.82;;
78927;SDS011;68322;22.726;113.540;2023-05-10T15:03:49;14.93;;;6.97;;
78927;SDS011;68322;22.726;113.540;2023-05-10T15:06:16;16.08;;;7.45;;
78927;SDS011;68322;22.726;113.540;2023-05-10T15:08:42;18.05;;;7.68;;
78927;SDS011;68322;22.726;113.540;2023-05-10T15:11:29;22.83;;;7.38;;
78927;SDS011;68322;22.726;113.540;2023-05-10T15:13:56;20.13;;;8.35;;
78927;SDS011;68322;22.726;113.540;2023-05-10T15:16:23;18.60;;;8.57;;
78927;SDS011;68322;22.726;113.540;2023-05-10T15:18:52;14.02;;;6.90;;
78927;SDS011;68322;22.726;113.540;2023-05-10T15:21:20;17.17;;;7.40;;
78927;SDS011;68322;22.726;113.540;2023-05-10T15:23:52;14.52;;;6.93;;
78927;SDS011;68322;22.726;113.540;2023-05-10T15:26:19;12.57;;;7.18;;